sensor_id;sensor_type;location;lat;lon;timestamp;P1;durP1;ratioP1;P2;durP2;ratioP2
10045;SDS011;5063;50.878;4.742;2023-09-18T00:00:00;6.43;;;5.72;;
10045;SDS011;5063;50.878;4.742;2023-09-18T00:02:26;8.90;;;5.50;;
10045;SDS011;5063;50.878;4.742;2023-09-18T00:04:54;8.07;;;5.78;;
10045;SDS011;5063;50.878;4.742;2023-09-18T00:07:20;8.25;;;5.50;;
10045;SDS011;5063;50.878;4.742;2023-09-18T00:09:45;8.65;;;5.50;;
10045;SDS011;5063;50.878;4.742;2023-09-18T00:12:11;8.15;;;5.30;;
10045;SDS011;5063;50.878;4.742;2023-09-18T00:14:37;6.60;;;5.88;;
10045;SDS011;5063;50.878;4.742;2023-09-18T00:17:03;9.05;;;6.18;;
10045;SDS011;5063;50.878;4.742;2023-09-18T00:19:29;8.38;;;5.80;;
10045;SDS011;5063;50.878;4.742;2023-09-18T00:21:56;7.65;;;6.03;;
10045;SDS011;5063;50.878;4.742;2023-09-18T00:24:25;9.65;;;5.35;;
10045;SDS011;5063;50.878;4.742;2023-09-18T00:26:52;7.60;;;5.20;;
10045;SDS011;5063;50.878;4.742;2023-09-18T00:29:18;6.30;;;5.70;;
10045;SDS011;5063;50.878;4.742;2023-09-18T00:31:44;9.60;;;5.70;;
10045;SDS011;5063;50.878;4.742;2023-09-18T00:34:09;7.00;;;5.28;;
10045;SDS011;5063;50.878;4.742;2023-09-18T00:36:35;7.80;;;5.78;;
10045;SDS011;5063;50.878;4.742;2023-09-18T00:39:01;7.60;;;5.10;;
10045;SDS011;5063;50.878;4.742;2023-09-18T00:41:27;7.07;;;4.78;;
10045;SDS011;5063;50.878;4.742;2023-09-18T00:43:52;8.63;;;5.20;;
10045;SDS011;5063;50.878;4.742;2023-09-18T00:46:19;5.30;;;4.80;;
10045;SDS011;5063;50.878;4.742;2023-09-18T00:48:45;6.10;;;5.50;;
10045;SDS011;5063;50.878;4.742;2023-09-18T00:51:11;7.43;;;4.88;;
10045;SDS011;5063;50.878;4.742;2023-09-18T00:53:41;5.85;;;5.28;;
10045;SDS011;5063;50.878;4.742;2023-09-18T00:56:09;6.00;;;5.50;;
10045;SDS011;5063;50.878;4.742;2023-09-18T00:58:35;8.45;;;5.22;;
10045;SDS011;5063;50.878;4.742;2023-09-18T01:01:02;5.75;;;5.10;;
10045;SDS011;5063;50.878;4.742;2023-09-18T01:03:28;10.70;;;5.20;;
10045;SDS011;5063;50.878;4.742;2023-09-18T01:05:54;7.20;;;5.80;;
10045;SDS011;5063;50.878;4.742;2023-09-18T01:08:20;8.43;;;6.32;;
10045;SDS011;5063;50.878;4.742;2023-09-18T01:11:06;6.78;;;5.78;;
10045;SDS011;5063;50.878;4.742;2023-09-18T01:13:45;8.77;;;6.03;;
10045;SDS011;5063;50.878;4.742;2023-09-18T01:16:27;7.75;;;6.20;;
10045;SDS011;5063;50.878;4.742;2023-09-18T01:19:01;8.10;;;6.35;;
10045;SDS011;5063;50.878;4.742;2023-09-18T01:21:28;7.65;;;5.68;;
10045;SDS011;5063;50.878;4.742;2023-09-18T01:23:54;9.13;;;6.32;;
10045;SDS011;5063;50.878;4.742;2023-09-18T01:26:19;7.13;;;5.50;;
10045;SDS011;5063;50.878;4.742;2023-09-18T01:28:45;8.10;;;5.85;;
10045;SDS011;5063;50.878;4.742;2023-09-18T01:31:11;10.60;;;6.00;;
10045;SDS011;5063;50.878;4.742;2023-09-18T01:33:37;11.90;;;5.57;;
10045;SDS011;5063;50.878;4.742;2023-09-18T01:36:03;8.30;;;5.82;;
10045;SDS011;5063;50.878;4.742;2023-09-18T01:38:32;7.90;;;5.78;;
10045;SDS011;5063;50.878;4.742;2023-09-18T01:40:58;6.65;;;5.88;;
10045;SDS011;5063;50.878;4.742;2023-09-18T01:43:25;8.93;;;6.22;;
10045;SDS011;5063;50.878;4.742;2023-09-18T01:45:51;8.23;;;6.03;;
10045;SDS011;5063;50.878;4.742;2023-09-18T01:48:18;8.82;;;6.85;;
10045;SDS011;5063;50.878;4.742;2023-09-18T01:50:43;7.80;;;6.40;;
10045;SDS011;5063;50.878;4.742;2023-09-18T01:53:09;9.25;;;6.75;;
10045;SDS011;5063;50.878;4.742;2023-09-18T01:55:35;11.38;;;6.90;;
10045;SDS011;5063;50.878;4.742;2023-09-18T01:58:00;9.73;;;6.72;;
10045;SDS011;5063;50.878;4.742;2023-09-18T02:00:27;6.88;;;6.22;;
10045;SDS011;5063;50.878;4.742;2023-09-18T02:02:53;8.68;;;6.78;;
10045;SDS011;5063;50.878;4.742;2023-09-18T02:05:19;12.27;;;7.03;;
10045;SDS011;5063;50.878;4.742;2023-09-18T02:07:44;11.18;;;6.65;;
10045;SDS011;5063;50.878;4.742;2023-09-18T02:10:10;9.73;;;7.32;;
10045;SDS011;5063;50.878;4.742;2023-09-18T02:12:38;14.00;;;7.90;;
10045;SDS011;5063;50.878;4.742;2023-09-18T02:15:04;7.18;;;6.20;;
10045;SDS011;5063;50.878;4.742;2023-09-18T02:17:31;7.30;;;6.30;;
10045;SDS011;5063;50.878;4.742;2023-09-18T02:19:57;11.15;;;6.85;;
10045;SDS011;5063;50.878;4.742;2023-09-18T02:22:25;8.40;;;6.63;;
10045;SDS011;5063;50.878;4.742;2023-09-18T02:24:51;7.18;;;6.40;;
10045;SDS011;5063;50.878;4.742;2023-09-18T02:27:17;8.52;;;6.25;;
10045;SDS011;5063;50.878;4.742;2023-09-18T02:29:43;8.63;;;6.57;;
10045;SDS011;5063;50.878;4.742;2023-09-18T02:32:10;6.82;;;6.13;;
10045;SDS011;5063;50.878;4.742;2023-09-18T02:34:36;7.60;;;6.20;;
10045;SDS011;5063;50.878;4.742;2023-09-18T02:37:01;7.57;;;6.25;;
10045;SDS011;5063;50.878;4.742;2023-09-18T02:39:27;10.80;;;6.80;;
10045;SDS011;5063;50.878;4.742;2023-09-18T02:41:53;7.28;;;5.97;;
10045;SDS011;5063;50.878;4.742;2023-09-18T02:44:19;7.35;;;5.63;;
10045;SDS011;5063;50.878;4.742;2023-09-18T02:46:44;7.15;;;6.03;;
10045;SDS011;5063;50.878;4.742;2023-09-18T02:49:10;6.70;;;6.00;;
10045;SDS011;5063;50.878;4.742;2023-09-18T02:51:36;7.63;;;5.97;;
10045;SDS011;5063;50.878;4.742;2023-09-18T02:54:01;11.50;;;6.32;;
10045;SDS011;5063;50.878;4.742;2023-09-18T02:56:27;9.23;;;5.97;;
10045;SDS011;5063;50.878;4.742;2023-09-18T02:58:53;8.95;;;5.97;;
10045;SDS011;5063;50.878;4.742;2023-09-18T03:01:18;8.48;;;6.88;;
10045;SDS011;5063;50.878;4.742;2023-09-18T03:03:44;7.50;;;6.00;;
10045;SDS011;5063;50.878;4.742;2023-09-18T03:06:10;7.55;;;6.20;;
10045;SDS011;5063;50.878;4.742;2023-09-18T03:08:35;9.10;;;5.60;;
10045;SDS011;5063;50.878;4.742;2023-09-18T03:11:01;6.70;;;5.57;;
10045;SDS011;5063;50.878;4.742;2023-09-18T03:13:28;7.07;;;5.38;;
10045;SDS011;5063;50.878;4.742;2023-09-18T03:15:55;10.00;;;5.88;;
10045;SDS011;5063;50.878;4.742;2023-09-18T03:18:21;10.68;;;5.40;;
10045;SDS011;5063;50.878;4.742;2023-09-18T03:20:47;7.15;;;5.10;;
10045;SDS011;5063;50.878;4.742;2023-09-18T03:23:13;6.68;;;5.13;;
10045;SDS011;5063;50.878;4.742;2023-09-18T03:25:39;5.47;;;4.50;;
10045;SDS011;5063;50.878;4.742;2023-09-18T03:28:05;5.18;;;4.53;;
10045;SDS011;5063;50.878;4.742;2023-09-18T03:30:30;8.02;;;4.45;;
10045;SDS011;5063;50.878;4.742;2023-09-18T03:32:56;6.25;;;4.90;;
10045;SDS011;5063;50.878;4.742;2023-09-18T03:35:22;6.30;;;4.35;;
10045;SDS011;5063;50.878;4.742;2023-09-18T03:37:52;4.43;;;4.03;;
10045;SDS011;5063;50.878;4.742;2023-09-18T03:40:21;5.07;;;3.92;;
10045;SDS011;5063;50.878;4.742;2023-09-18T03:42:47;5.10;;;3.20;;
10045;SDS011;5063;50.878;4.742;2023-09-18T03:45:16;5.88;;;3.30;;
10045;SDS011;5063;50.878;4.742;2023-09-18T03:47:44;3.83;;;2.90;;
10045;SDS011;5063;50.878;4.742;2023-09-18T03:50:10;4.15;;;3.28;;
10045;SDS011;5063;50.878;4.742;2023-09-18T03:52:37;4.82;;;2.85;;
10045;SDS011;5063;50.878;4.742;2023-09-18T03:55:04;5.03;;;2.45;;
10045;SDS011;5063;50.878;4.742;2023-09-18T03:57:30;4.10;;;2.10;;
10045;SDS011;5063;50.878;4.742;2023-09-18T03:59:56;2.65;;;2.45;;
10045;SDS011;5063;50.878;4.742;2023-09-18T04:02:23;4.70;;;2.58;;
10045;SDS011;5063;50.878;4.742;2023-09-18T04:04:50;3.25;;;2.20;;
10045;SDS011;5063;50.878;4.742;2023-09-18T04:07:15;2.33;;;2.15;;
10045;SDS011;5063;50.878;4.742;2023-09-18T04:09:41;5.18;;;2.40;;
10045;SDS011;5063;50.878;4.742;2023-09-18T04:12:07;2.70;;;2.10;;
10045;SDS011;5063;50.878;4.742;2023-09-18T04:14:33;4.00;;;2.20;;
10045;SDS011;5063;50.878;4.742;2023-09-18T04:16:59;3.97;;;2.20;;
10045;SDS011;5063;50.878;4.742;2023-09-18T04:19:28;3.10;;;1.98;;
10045;SDS011;5063;50.878;4.742;2023-09-18T04:21:54;5.80;;;2.03;;
10045;SDS011;5063;50.878;4.742;2023-09-18T04:24:19;2.97;;;1.88;;
10045;SDS011;5063;50.878;4.742;2023-09-18T04:26:45;2.03;;;1.85;;
10045;SDS011;5063;50.878;4.742;2023-09-18T04:29:11;3.58;;;2.13;;
10045;SDS011;5063;50.878;4.742;2023-09-18T04:31:37;2.08;;;1.80;;
10045;SDS011;5063;50.878;4.742;2023-09-18T04:34:03;2.05;;;1.83;;
10045;SDS011;5063;50.878;4.742;2023-09-18T04:36:29;3.92;;;2.05;;
10045;SDS011;5063;50.878;4.742;2023-09-18T04:38:55;4.30;;;1.70;;
10045;SDS011;5063;50.878;4.742;2023-09-18T04:41:20;2.22;;;1.80;;
10045;SDS011;5063;50.878;4.742;2023-09-18T04:43:46;3.03;;;1.88;;
10045;SDS011;5063;50.878;4.742;2023-09-18T04:46:12;4.00;;;1.60;;
10045;SDS011;5063;50.878;4.742;2023-09-18T04:48:38;4.35;;;1.80;;
10045;SDS011;5063;50.878;4.742;2023-09-18T04:51:04;7.10;;;2.10;;
10045;SDS011;5063;50.878;4.742;2023-09-18T04:53:30;3.50;;;2.00;;
10045;SDS011;5063;50.878;4.742;2023-09-18T04:55:57;1.88;;;1.70;;
10045;SDS011;5063;50.878;4.742;2023-09-18T04:58:23;2.90;;;1.90;;
10045;SDS011;5063;50.878;4.742;2023-09-18T05:00:55;5.78;;;2.45;;
10045;SDS011;5063;50.878;4.742;2023-09-18T05:03:22;1.67;;;1.58;;
10045;SDS011;5063;50.878;4.742;2023-09-18T05:05:48;5.22;;;2.00;;
10045;SDS011;5063;50.878;4.742;2023-09-18T05:08:14;5.18;;;1.77;;
10045;SDS011;5063;50.878;4.742;2023-09-18T05:10:39;2.70;;;1.58;;
10045;SDS011;5063;50.878;4.742;2023-09-18T05:13:05;6.53;;;2.17;;
10045;SDS011;5063;50.878;4.742;2023-09-18T05:15:32;3.60;;;2.05;;
10045;SDS011;5063;50.878;4.742;2023-09-18T05:17:58;5.68;;;1.85;;
10045;SDS011;5063;50.878;4.742;2023-09-18T05:20:25;4.10;;;2.20;;
10045;SDS011;5063;50.878;4.742;2023-09-18T05:22:53;2.15;;;1.80;;
10045;SDS011;5063;50.878;4.742;2023-09-18T05:25:20;2.38;;;2.10;;
10045;SDS011;5063;50.878;4.742;2023-09-18T05:27:47;5.03;;;2.08;;
10045;SDS011;5063;50.878;4.742;2023-09-18T05:30:21;2.45;;;1.92;;
10045;SDS011;5063;50.878;4.742;2023-09-18T05:32:50;3.50;;;2.28;;
10045;SDS011;5063;50.878;4.742;2023-09-18T05:35:16;2.38;;;2.05;;
10045;SDS011;5063;50.878;4.742;2023-09-18T05:37:43;4.53;;;2.17;;
10045;SDS011;5063;50.878;4.742;2023-09-18T05:40:11;4.75;;;1.90;;
10045;SDS011;5063;50.878;4.742;2023-09-18T05:42:38;2.88;;;1.90;;
10045;SDS011;5063;50.878;4.742;2023-09-18T05:45:08;7.70;;;1.92;;
10045;SDS011;5063;50.878;4.742;2023-09-18T05:47:38;5.00;;;2.22;;
10045;SDS011;5063;50.878;4.742;2023-09-18T05:50:10;3.47;;;2.13;;
10045;SDS011;5063;50.878;4.742;2023-09-18T05:52:41;3.55;;;1.95;;
10045;SDS011;5063;50.878;4.742;2023-09-18T05:55:10;4.15;;;2.33;;
10045;SDS011;5063;50.878;4.742;2023-09-18T05:57:37;2.65;;;2.03;;
10045;SDS011;5063;50.878;4.742;2023-09-18T06:00:03;3.50;;;2.30;;
10045;SDS011;5063;50.878;4.742;2023-09-18T06:02:30;2.55;;;1.98;;
10045;SDS011;5063;50.878;4.742;2023-09-18T06:04:56;3.72;;;2.42;;
10045;SDS011;5063;50.878;4.742;2023-09-18T06:07:26;3.78;;;2.13;;
10045;SDS011;5063;50.878;4.742;2023-09-18T06:09:52;3.67;;;2.10;;
10045;SDS011;5063;50.878;4.742;2023-09-18T06:12:18;7.30;;;2.22;;
10045;SDS011;5063;50.878;4.742;2023-09-18T06:14:44;3.70;;;1.95;;
10045;SDS011;5063;50.878;4.742;2023-09-18T06:17:11;4.03;;;2.13;;
10045;SDS011;5063;50.878;4.742;2023-09-18T06:19:37;4.17;;;2.10;;
10045;SDS011;5063;50.878;4.742;2023-09-18T06:22:03;5.18;;;2.30;;
10045;SDS011;5063;50.878;4.742;2023-09-18T06:24:29;4.03;;;2.10;;
10045;SDS011;5063;50.878;4.742;2023-09-18T06:26:54;2.25;;;1.90;;
10045;SDS011;5063;50.878;4.742;2023-09-18T06:29:20;4.70;;;2.00;;
10045;SDS011;5063;50.878;4.742;2023-09-18T06:31:46;2.67;;;1.95;;
10045;SDS011;5063;50.878;4.742;2023-09-18T06:34:12;5.28;;;2.50;;
10045;SDS011;5063;50.878;4.742;2023-09-18T06:36:37;3.90;;;2.10;;
10045;SDS011;5063;50.878;4.742;2023-09-18T06:39:03;4.10;;;2.00;;
10045;SDS011;5063;50.878;4.742;2023-09-18T06:41:29;4.25;;;2.17;;
10045;SDS011;5063;50.878;4.742;2023-09-18T06:43:54;2.65;;;2.03;;
10045;SDS011;5063;50.878;4.742;2023-09-18T06:46:22;2.35;;;1.80;;
10045;SDS011;5063;50.878;4.742;2023-09-18T06:48:47;6.30;;;1.80;;
10045;SDS011;5063;50.878;4.742;2023-09-18T06:51:16;3.90;;;2.15;;
10045;SDS011;5063;50.878;4.742;2023-09-18T06:53:43;3.22;;;1.83;;
10045;SDS011;5063;50.878;4.742;2023-09-18T06:56:09;2.53;;;1.77;;
10045;SDS011;5063;50.878;4.742;2023-09-18T06:58:35;4.60;;;1.88;;
10045;SDS011;5063;50.878;4.742;2023-09-18T07:01:00;4.90;;;1.80;;
10045;SDS011;5063;50.878;4.742;2023-09-18T07:03:26;7.22;;;2.03;;
10045;SDS011;5063;50.878;4.742;2023-09-18T07:05:52;3.13;;;1.63;;
10045;SDS011;5063;50.878;4.742;2023-09-18T07:08:18;5.17;;;2.10;;
10045;SDS011;5063;50.878;4.742;2023-09-18T07:10:44;2.30;;;1.83;;
10045;SDS011;5063;50.878;4.742;2023-09-18T07:13:10;4.55;;;1.70;;
10045;SDS011;5063;50.878;4.742;2023-09-18T07:15:39;6.50;;;2.67;;
10045;SDS011;5063;50.878;4.742;2023-09-18T07:18:04;3.63;;;1.80;;
10045;SDS011;5063;50.878;4.742;2023-09-18T07:20:30;2.35;;;1.95;;
10045;SDS011;5063;50.878;4.742;2023-09-18T07:22:56;3.72;;;1.83;;
10045;SDS011;5063;50.878;4.742;2023-09-18T07:25:21;4.32;;;2.08;;
10045;SDS011;5063;50.878;4.742;2023-09-18T07:27:47;5.13;;;1.70;;
10045;SDS011;5063;50.878;4.742;2023-09-18T07:30:13;3.00;;;1.92;;
10045;SDS011;5063;50.878;4.742;2023-09-18T07:32:44;3.50;;;2.10;;
10045;SDS011;5063;50.878;4.742;2023-09-18T07:35:11;3.22;;;1.92;;
10045;SDS011;5063;50.878;4.742;2023-09-18T07:37:38;3.15;;;2.10;;
10045;SDS011;5063;50.878;4.742;2023-09-18T07:40:05;3.90;;;1.70;;
10045;SDS011;5063;50.878;4.742;2023-09-18T07:42:31;2.47;;;1.77;;
10045;SDS011;5063;50.878;4.742;2023-09-18T07:44:57;4.80;;;2.08;;
10045;SDS011;5063;50.878;4.742;2023-09-18T07:47:23;3.33;;;1.70;;
10045;SDS011;5063;50.878;4.742;2023-09-18T07:49:49;2.47;;;1.92;;
10045;SDS011;5063;50.878;4.742;2023-09-18T07:52:15;3.00;;;1.92;;
10045;SDS011;5063;50.878;4.742;2023-09-18T07:54:42;3.70;;;1.55;;
10045;SDS011;5063;50.878;4.742;2023-09-18T07:57:08;3.55;;;1.90;;
10045;SDS011;5063;50.878;4.742;2023-09-18T07:59:37;3.83;;;1.80;;
10045;SDS011;5063;50.878;4.742;2023-09-18T08:02:04;2.17;;;1.38;;
10045;SDS011;5063;50.878;4.742;2023-09-18T08:04:33;1.88;;;1.50;;
10045;SDS011;5063;50.878;4.742;2023-09-18T08:06:59;3.45;;;1.88;;
10045;SDS011;5063;50.878;4.742;2023-09-18T08:09:25;3.90;;;1.90;;
10045;SDS011;5063;50.878;4.742;2023-09-18T08:11:54;3.15;;;1.90;;
10045;SDS011;5063;50.878;4.742;2023-09-18T08:14:21;4.65;;;1.60;;
10045;SDS011;5063;50.878;4.742;2023-09-18T08:16:55;5.13;;;1.58;;
10045;SDS011;5063;50.878;4.742;2023-09-18T08:19:26;2.85;;;1.63;;
10045;SDS011;5063;50.878;4.742;2023-09-18T08:21:55;3.90;;;1.90;;
10045;SDS011;5063;50.878;4.742;2023-09-18T08:24:21;3.65;;;1.88;;
10045;SDS011;5063;50.878;4.742;2023-09-18T08:26:48;3.08;;;1.98;;
10045;SDS011;5063;50.878;4.742;2023-09-18T08:29:14;5.35;;;1.50;;
10045;SDS011;5063;50.878;4.742;2023-09-18T08:31:40;1.73;;;1.60;;
10045;SDS011;5063;50.878;4.742;2023-09-18T08:34:06;3.65;;;2.28;;
10045;SDS011;5063;50.878;4.742;2023-09-18T08:36:32;4.85;;;2.00;;
10045;SDS011;5063;50.878;4.742;2023-09-18T08:38:58;4.05;;;2.17;;
10045;SDS011;5063;50.878;4.742;2023-09-18T08:41:24;6.60;;;1.80;;
10045;SDS011;5063;50.878;4.742;2023-09-18T08:43:52;5.28;;;2.28;;
10045;SDS011;5063;50.878;4.742;2023-09-18T08:46:23;3.00;;;1.95;;
10045;SDS011;5063;50.878;4.742;2023-09-18T08:48:49;5.60;;;2.33;;
10045;SDS011;5063;50.878;4.742;2023-09-18T08:51:16;6.10;;;2.30;;
10045;SDS011;5063;50.878;4.742;2023-09-18T08:53:43;5.22;;;2.10;;
10045;SDS011;5063;50.878;4.742;2023-09-18T08:56:10;4.10;;;2.33;;
10045;SDS011;5063;50.878;4.742;2023-09-18T08:58:39;7.88;;;2.42;;
10045;SDS011;5063;50.878;4.742;2023-09-18T09:01:08;3.88;;;2.10;;
10045;SDS011;5063;50.878;4.742;2023-09-18T09:03:41;4.03;;;2.50;;
10045;SDS011;5063;50.878;4.742;2023-09-18T09:06:11;4.25;;;2.10;;
10045;SDS011;5063;50.878;4.742;2023-09-18T09:08:37;6.20;;;2.40;;
10045;SDS011;5063;50.878;4.742;2023-09-18T09:11:04;3.05;;;2.00;;
10045;SDS011;5063;50.878;4.742;2023-09-18T09:13:30;3.22;;;2.10;;
10045;SDS011;5063;50.878;4.742;2023-09-18T09:15:57;4.25;;;2.22;;
10045;SDS011;5063;50.878;4.742;2023-09-18T09:18:24;4.43;;;2.03;;
10045;SDS011;5063;50.878;4.742;2023-09-18T09:23:44;3.33;;;2.28;;
10045;SDS011;5063;50.878;4.742;2023-09-18T09:26:18;5.40;;;2.25;;
10045;SDS011;5063;50.878;4.742;2023-09-18T09:28:45;6.47;;;2.80;;
10045;SDS011;5063;50.878;4.742;2023-09-18T09:31:13;4.80;;;2.55;;
10045;SDS011;5063;50.878;4.742;2023-09-18T09:33:52;4.93;;;2.70;;
10045;SDS011;5063;50.878;4.742;2023-09-18T09:36:19;2.88;;;2.25;;
10045;SDS011;5063;50.878;4.742;2023-09-18T09:38:45;4.88;;;2.72;;
10045;SDS011;5063;50.878;4.742;2023-09-18T09:41:14;3.70;;;2.20;;
10045;SDS011;5063;50.878;4.742;2023-09-18T09:43:42;2.78;;;2.22;;
10045;SDS011;5063;50.878;4.742;2023-09-18T09:46:16;8.30;;;3.00;;
10045;SDS011;5063;50.878;4.742;2023-09-18T09:48:58;3.28;;;2.38;;
10045;SDS011;5063;50.878;4.742;2023-09-18T09:51:26;5.18;;;2.58;;
10045;SDS011;5063;50.878;4.742;2023-09-18T09:53:53;3.80;;;2.65;;
10045;SDS011;5063;50.878;4.742;2023-09-18T09:56:19;5.13;;;2.60;;
10045;SDS011;5063;50.878;4.742;2023-09-18T09:59:02;4.13;;;2.58;;
10045;SDS011;5063;50.878;4.742;2023-09-18T10:01:33;3.65;;;2.45;;
10045;SDS011;5063;50.878;4.742;2023-09-18T10:04:03;5.75;;;2.80;;
10045;SDS011;5063;50.878;4.742;2023-09-18T10:06:54;4.18;;;2.33;;
10045;SDS011;5063;50.878;4.742;2023-09-18T10:09:22;6.07;;;2.70;;
10045;SDS011;5063;50.878;4.742;2023-09-18T10:11:51;3.83;;;2.42;;
10045;SDS011;5063;50.878;4.742;2023-09-18T10:14:20;6.35;;;2.55;;
10045;SDS011;5063;50.878;4.742;2023-09-18T10:16:53;3.70;;;2.38;;
10045;SDS011;5063;50.878;4.742;2023-09-18T10:19:39;6.15;;;2.40;;
10045;SDS011;5063;50.878;4.742;2023-09-18T10:22:15;5.40;;;2.65;;
10045;SDS011;5063;50.878;4.742;2023-09-18T10:24:54;3.58;;;2.10;;
10045;SDS011;5063;50.878;4.742;2023-09-18T10:27:25;4.47;;;2.20;;
10045;SDS011;5063;50.878;4.742;2023-09-18T10:29:53;4.32;;;2.15;;
10045;SDS011;5063;50.878;4.742;2023-09-18T10:32:20;3.70;;;2.50;;
10045;SDS011;5063;50.878;4.742;2023-09-18T10:34:47;3.78;;;2.50;;
10045;SDS011;5063;50.878;4.742;2023-09-18T10:37:13;3.72;;;2.63;;
10045;SDS011;5063;50.878;4.742;2023-09-18T10:39:41;4.85;;;2.65;;
10045;SDS011;5063;50.878;4.742;2023-09-18T10:42:09;4.97;;;2.92;;
10045;SDS011;5063;50.878;4.742;2023-09-18T10:44:37;3.67;;;2.60;;
10045;SDS011;5063;50.878;4.742;2023-09-18T10:47:06;4.38;;;2.63;;
10045;SDS011;5063;50.878;4.742;2023-09-18T10:49:34;5.22;;;2.20;;
10045;SDS011;5063;50.878;4.742;2023-09-18T10:52:01;3.75;;;2.58;;
10045;SDS011;5063;50.878;4.742;2023-09-18T10:54:27;4.47;;;2.70;;
10045;SDS011;5063;50.878;4.742;2023-09-18T10:56:55;3.85;;;2.70;;
10045;SDS011;5063;50.878;4.742;2023-09-18T10:59:22;5.53;;;2.60;;
10045;SDS011;5063;50.878;4.742;2023-09-18T11:01:48;5.53;;;2.05;;
10045;SDS011;5063;50.878;4.742;2023-09-18T11:04:17;4.65;;;2.85;;
10045;SDS011;5063;50.878;4.742;2023-09-18T11:14:44;6.65;;;2.95;;
10045;SDS011;5063;50.878;4.742;2023-09-18T11:28:24;3.22;;;2.25;;
10045;SDS011;5063;50.878;4.742;2023-09-18T11:30:51;6.38;;;2.78;;
10045;SDS011;5063;50.878;4.742;2023-09-18T11:36:08;5.25;;;2.53;;
10045;SDS011;5063;50.878;4.742;2023-09-18T11:38:53;4.78;;;2.42;;
10045;SDS011;5063;50.878;4.742;2023-09-18T11:41:25;3.40;;;2.25;;
10045;SDS011;5063;50.878;4.742;2023-09-18T11:46:38;4.10;;;2.33;;
10045;SDS011;5063;50.878;4.742;2023-09-18T11:49:08;3.92;;;2.25;;
10045;SDS011;5063;50.878;4.742;2023-09-18T11:51:36;2.83;;;2.30;;
10045;SDS011;5063;50.878;4.742;2023-09-18T11:54:03;3.55;;;2.42;;
10045;SDS011;5063;50.878;4.742;2023-09-18T11:56:34;4.32;;;2.40;;
10045;SDS011;5063;50.878;4.742;2023-09-18T11:59:00;2.60;;;2.40;;
10045;SDS011;5063;50.878;4.742;2023-09-18T12:01:30;4.10;;;2.58;;
10045;SDS011;5063;50.878;4.742;2023-09-18T12:04:03;2.55;;;2.35;;
10045;SDS011;5063;50.878;4.742;2023-09-18T12:06:39;5.50;;;2.13;;
10045;SDS011;5063;50.878;4.742;2023-09-18T12:09:06;4.72;;;3.05;;
10045;SDS011;5063;50.878;4.742;2023-09-18T12:11:32;4.85;;;2.03;;
10045;SDS011;5063;50.878;4.742;2023-09-18T12:14:06;4.75;;;2.78;;
10045;SDS011;5063;50.878;4.742;2023-09-18T12:16:38;3.40;;;2.20;;
10045;SDS011;5063;50.878;4.742;2023-09-18T12:19:05;2.97;;;2.25;;
10045;SDS011;5063;50.878;4.742;2023-09-18T12:21:39;2.42;;;1.95;;
10045;SDS011;5063;50.878;4.742;2023-09-18T12:24:06;4.88;;;2.13;;
10045;SDS011;5063;50.878;4.742;2023-09-18T12:26:32;3.95;;;2.35;;
10045;SDS011;5063;50.878;4.742;2023-09-18T12:28:58;3.25;;;2.20;;
10045;SDS011;5063;50.878;4.742;2023-09-18T12:31:25;3.83;;;2.25;;
10045;SDS011;5063;50.878;4.742;2023-09-18T12:33:51;4.63;;;2.20;;
10045;SDS011;5063;50.878;4.742;2023-09-18T12:36:19;3.35;;;2.35;;
10045;SDS011;5063;50.878;4.742;2023-09-18T12:38:55;2.55;;;2.28;;
10045;SDS011;5063;50.878;4.742;2023-09-18T12:41:23;3.53;;;2.25;;
10045;SDS011;5063;50.878;4.742;2023-09-18T12:43:50;2.28;;;2.08;;
10045;SDS011;5063;50.878;4.742;2023-09-18T12:46:16;3.83;;;2.05;;
10045;SDS011;5063;50.878;4.742;2023-09-18T12:48:44;3.17;;;2.30;;
10045;SDS011;5063;50.878;4.742;2023-09-18T12:51:13;2.17;;;1.80;;
10045;SDS011;5063;50.878;4.742;2023-09-18T12:53:40;2.40;;;1.55;;
10045;SDS011;5063;50.878;4.742;2023-09-18T12:58:34;3.17;;;1.73;;
10045;SDS011;5063;50.878;4.742;2023-09-18T13:01:03;4.13;;;2.00;;
10045;SDS011;5063;50.878;4.742;2023-09-18T13:03:46;3.40;;;1.98;;
10045;SDS011;5063;50.878;4.742;2023-09-18T13:06:15;4.32;;;2.10;;
10045;SDS011;5063;50.878;4.742;2023-09-18T13:08:44;2.10;;;1.75;;
10045;SDS011;5063;50.878;4.742;2023-09-18T13:11:11;3.05;;;1.80;;
10045;SDS011;5063;50.878;4.742;2023-09-18T13:13:39;3.33;;;2.50;;
10045;SDS011;5063;50.878;4.742;2023-09-18T13:16:06;1.88;;;1.63;;
10045;SDS011;5063;50.878;4.742;2023-09-18T13:18:37;4.35;;;2.33;;
10045;SDS011;5063;50.878;4.742;2023-09-18T13:21:11;1.92;;;1.67;;
10045;SDS011;5063;50.878;4.742;2023-09-18T13:23:38;4.72;;;1.83;;
10045;SDS011;5063;50.878;4.742;2023-09-18T13:26:05;2.10;;;1.83;;
10045;SDS011;5063;50.878;4.742;2023-09-18T13:28:33;2.20;;;2.00;;
10045;SDS011;5063;50.878;4.742;2023-09-18T13:31:01;4.50;;;2.10;;
10045;SDS011;5063;50.878;4.742;2023-09-18T13:33:31;2.00;;;1.75;;
10045;SDS011;5063;50.878;4.742;2023-09-18T13:35:58;3.90;;;2.00;;
10045;SDS011;5063;50.878;4.742;2023-09-18T13:38:24;5.32;;;1.67;;
10045;SDS011;5063;50.878;4.742;2023-09-18T13:40:51;2.30;;;1.92;;
10045;SDS011;5063;50.878;4.742;2023-09-18T13:43:19;3.70;;;1.90;;
10045;SDS011;5063;50.878;4.742;2023-09-18T13:45:47;4.65;;;2.08;;
10045;SDS011;5063;50.878;4.742;2023-09-18T13:48:16;4.32;;;1.95;;
10045;SDS011;5063;50.878;4.742;2023-09-18T13:50:46;1.67;;;1.58;;
10045;SDS011;5063;50.878;4.742;2023-09-18T13:53:13;2.78;;;1.75;;
10045;SDS011;5063;50.878;4.742;2023-09-18T13:55:39;3.00;;;1.95;;
10045;SDS011;5063;50.878;4.742;2023-09-18T13:58:04;2.90;;;1.77;;
10045;SDS011;5063;50.878;4.742;2023-09-18T14:00:31;1.85;;;1.73;;
10045;SDS011;5063;50.878;4.742;2023-09-18T14:02:57;2.25;;;1.45;;
10045;SDS011;5063;50.878;4.742;2023-09-18T14:05:23;2.25;;;1.70;;
10045;SDS011;5063;50.878;4.742;2023-09-18T14:07:50;4.65;;;1.60;;
10045;SDS011;5063;50.878;4.742;2023-09-18T14:10:16;5.07;;;1.77;;
10045;SDS011;5063;50.878;4.742;2023-09-18T14:12:43;2.63;;;1.83;;
10045;SDS011;5063;50.878;4.742;2023-09-18T14:15:09;1.88;;;1.67;;
10045;SDS011;5063;50.878;4.742;2023-09-18T14:17:35;5.57;;;1.70;;
10045;SDS011;5063;50.878;4.742;2023-09-18T14:20:02;3.28;;;1.83;;
10045;SDS011;5063;50.878;4.742;2023-09-18T14:22:32;2.30;;;1.70;;
10045;SDS011;5063;50.878;4.742;2023-09-18T14:24:58;2.10;;;1.67;;
10045;SDS011;5063;50.878;4.742;2023-09-18T14:27:24;2.17;;;1.70;;
10045;SDS011;5063;50.878;4.742;2023-09-18T14:29:49;3.50;;;1.73;;
10045;SDS011;5063;50.878;4.742;2023-09-18T14:32:15;3.95;;;1.70;;
10045;SDS011;5063;50.878;4.742;2023-09-18T14:34:41;2.45;;;1.60;;
10045;SDS011;5063;50.878;4.742;2023-09-18T14:37:07;2.38;;;1.80;;
10045;SDS011;5063;50.878;4.742;2023-09-18T14:39:33;2.80;;;1.60;;
10045;SDS011;5063;50.878;4.742;2023-09-18T14:41:59;2.75;;;1.70;;
10045;SDS011;5063;50.878;4.742;2023-09-18T14:44:26;2.92;;;1.83;;
10045;SDS011;5063;50.878;4.742;2023-09-18T14:46:58;2.08;;;1.88;;
10045;SDS011;5063;50.878;4.742;2023-09-18T14:49:24;2.50;;;1.77;;
10045;SDS011;5063;50.878;4.742;2023-09-18T14:51:52;3.63;;;1.80;;
10045;SDS011;5063;50.878;4.742;2023-09-18T14:54:19;3.03;;;1.77;;
10045;SDS011;5063;50.878;4.742;2023-09-18T14:56:45;2.00;;;1.77;;
10045;SDS011;5063;50.878;4.742;2023-09-18T14:59:12;3.55;;;2.10;;
10045;SDS011;5063;50.878;4.742;2023-09-18T15:01:38;4.72;;;2.00;;
10045;SDS011;5063;50.878;4.742;2023-09-18T15:04:03;4.03;;;2.00;;
10045;SDS011;5063;50.878;4.742;2023-09-18T15:06:29;4.65;;;2.20;;
10045;SDS011;5063;50.878;4.742;2023-09-18T15:08:56;5.68;;;2.05;;
10045;SDS011;5063;50.878;4.742;2023-09-18T15:11:21;3.22;;;2.00;;
10045;SDS011;5063;50.878;4.742;2023-09-18T15:13:48;4.28;;;2.10;;
10045;SDS011;5063;50.878;4.742;2023-09-18T15:16:14;6.78;;;2.00;;
10045;SDS011;5063;50.878;4.742;2023-09-18T15:18:40;4.55;;;3.00;;
10045;SDS011;5063;50.878;4.742;2023-09-18T15:21:05;7.63;;;2.83;;
10045;SDS011;5063;50.878;4.742;2023-09-18T15:23:31;7.72;;;2.85;;
10045;SDS011;5063;50.878;4.742;2023-09-18T15:25:57;3.55;;;2.15;;
10045;SDS011;5063;50.878;4.742;2023-09-18T15:28:23;5.55;;;2.28;;
10045;SDS011;5063;50.878;4.742;2023-09-18T15:30:52;3.58;;;2.38;;